sensor_id;sensor_type;location;lat;lon;timestamp;pressure;altitude;pressure_sealevel;temperature;humidity
23241;BME280;11789;53.482;9.862;2023-02-10T00:01:19;103248.75;;;1.67;100.00
23241;BME280;11789;53.482;9.862;2023-02-10T00:03:45;103242.91;;;1.68;100.00
23241;BME280;11789;53.482;9.862;2023-02-10T00:06:12;103253.09;;;1.68;100.00
23241;BME280;11789;53.482;9.862;2023-02-10T00:08:38;103248.75;;;1.67;100.00
23241;BME280;11789;53.482;9.862;2023-02-10T00:11:07;103251.19;;;1.66;100.00
23241;BME280;11789;53.482;9.862;2023-02-10T00:13:33;103256.19;;;1.64;100.00
23241;BME280;11789;53.482;9.862;2023-02-10T00:16:00;103253.63;;;1.64;100.00
23241;BME280;11789;53.482;9.862;2023-02-10T00:18:27;103260.41;;;1.64;100.00
23241;BME280;11789;53.482;9.862;2023-02-10T00:20:53;103270.47;;;1.62;100.00
23241;BME280;11789;53.482;9.862;2023-02-10T00:23:18;103270.69;;;1.65;100.00
23241;BME280;11789;53.482;9.862;2023-02-10T00:25:43;103272.47;;;1.66;100.00
23241;BME280;11789;53.482;9.862;2023-02-10T00:28:09;103269.16;;;1.67;100.00
23241;BME280;11789;53.482;9.862;2023-02-10T00:30:34;103264.81;;;1.66;100.00
23241;BME280;11789;53.482;9.862;2023-02-10T00:33:01;103267.37;;;1.66;100.00
23241;BME280;11789;53.482;9.862;2023-02-10T00:35:26;103255.66;;;1.68;100.00
23241;BME280;11789;53.482;9.862;2023-02-10T00:37:52;103253.84;;;1.67;100.00
23241;BME280;11789;53.482;9.862;2023-02-10T00:40:17;103256.38;;;1.67;100.00
23241;BME280;11789;53.482;9.862;2023-02-10T00:42:43;103270.81;;;1.67;100.00
23241;BME280;11789;53.482;9.862;2023-02-10T00:45:09;103260.59;;;1.67;100.00
23241;BME280;11789;53.482;9.862;2023-02-10T00:47:34;103261.50;;;1.67;100.00
23241;BME280;11789;53.482;9.862;2023-02-10T00:49:59;103263.41;;;1.70;100.00
23241;BME280;11789;53.482;9.862;2023-02-10T00:52:25;103261.72;;;1.70;100.00
23241;BME280;11789;53.482;9.862;2023-02-10T00:54:51;103261.72;;;1.70;100.00
23241;BME280;11789;53.482;9.862;2023-02-10T00:57:16;103268.59;;;1.71;100.00
23241;BME280;11789;53.482;9.862;2023-02-10T00:59:42;103262.62;;;1.71;100.00
23241;BME280;11789;53.482;9.862;2023-02-10T01:02:07;103269.47;;;1.72;100.00
23241;BME280;11789;53.482;9.862;2023-02-10T01:04:33;103275.38;;;1.71;100.00
23241;BME280;11789;53.482;9.862;2023-02-10T01:06:59;103274.59;;;1.72;100.00
23241;BME280;11789;53.482;9.862;2023-02-10T01:09:24;103265.28;;;1.72;100.00
23241;BME280;11789;53.482;9.862;2023-02-10T01:11:50;103273.84;;;1.73;100.00
23241;BME280;11789;53.482;9.862;2023-02-10T01:14:16;103278.81;;;1.71;100.00
23241;BME280;11789;53.482;9.862;2023-02-10T01:16:41;103281.25;;;1.70;100.00
23241;BME280;11789;53.482;9.862;2023-02-10T01:19:07;103282.03;;;1.69;100.00
23241;BME280;11789;53.482;9.862;2023-02-10T01:21:33;103281.50;;;1.73;100.00
23241;BME280;11789;53.482;9.862;2023-02-10T01:23:58;103266.19;;;1.73;100.00
23241;BME280;11789;53.482;9.862;2023-02-10T01:26:24;103279.81;;;1.73;100.00
23241;BME280;11789;53.482;9.862;2023-02-10T01:28:49;103269.63;;;1.73;100.00
23241;BME280;11789;53.482;9.862;2023-02-10T01:31:17;103284.13;;;1.74;100.00
23241;BME280;11789;53.482;9.862;2023-02-10T01:33:43;103275.94;;;1.78;100.00
23241;BME280;11789;53.482;9.862;2023-02-10T01:36:12;103275.16;;;1.79;100.00
23241;BME280;11789;53.482;9.862;2023-02-10T01:38:37;103271.72;;;1.79;100.00
23241;BME280;11789;53.482;9.862;2023-02-10T01:41:05;103279.47;;;1.80;100.00
23241;BME280;11789;53.482;9.862;2023-02-10T01:43:32;103276.06;;;1.80;100.00
23241;BME280;11789;53.482;9.862;2023-02-10T01:45:57;103270.84;;;1.78;100.00
23241;BME280;11789;53.482;9.862;2023-02-10T01:48:24;103265.06;;;1.81;100.00
23241;BME280;11789;53.482;9.862;2023-02-10T01:50:53;103269.38;;;1.82;100.00
23241;BME280;11789;53.482;9.862;2023-02-10T01:53:21;103275.41;;;1.83;100.00
23241;BME280;11789;53.482;9.862;2023-02-10T01:55:52;103272.84;;;1.83;100.00
23241;BME280;11789;53.482;9.862;2023-02-10T01:58:23;103267.97;;;1.86;100.00
23241;BME280;11789;53.482;9.862;2023-02-10T02:00:50;103256.31;;;1.89;100.00
23241;BME280;11789;53.482;9.862;2023-02-10T02:03:15;103260.75;;;1.92;100.00
23241;BME280;11789;53.482;9.862;2023-02-10T02:05:42;103265.19;;;1.94;100.00
23241;BME280;11789;53.482;9.862;2023-02-10T02:08:12;103267.75;;;1.94;100.00
23241;BME280;11789;53.482;9.862;2023-02-10T02:13:44;103273.72;;;1.95;100.00
23241;BME280;11789;53.482;9.862;2023-02-10T02:16:43;103276.28;;;1.95;100.00
23241;BME280;11789;53.482;9.862;2023-02-10T02:33:17;103276.72;;;2.01;100.00
23241;BME280;11789;53.482;9.862;2023-02-10T02:35:53;103270.75;;;2.00;100.00
23241;BME280;11789;53.482;9.862;2023-02-10T02:38:21;103269.97;;;2.01;100.00
23241;BME280;11789;53.482;9.862;2023-02-10T02:40:47;103268.19;;;2.00;100.00
23241;BME280;11789;53.482;9.862;2023-02-10T02:43:12;103268.97;;;1.99;100.00
23241;BME280;11789;53.482;9.862;2023-02-10T02:45:53;103279.19;;;1.99;100.00
23241;BME280;11789;53.482;9.862;2023-02-10T02:48:44;103275.75;;;1.99;100.00
23241;BME280;11789;53.482;9.862;2023-02-10T02:51:30;103273.84;;;1.96;100.00
23241;BME280;11789;53.482;9.862;2023-02-10T02:54:31;103276.38;;;1.96;100.00
23241;BME280;11789;53.482;9.862;2023-02-10T02:57:09;103284.81;;;1.95;100.00
23241;BME280;11789;53.482;9.862;2023-02-10T02:59:44;103283.06;;;1.94;100.00
23241;BME280;11789;53.482;9.862;2023-02-10T03:02:14;103277.97;;;1.94;100.00
23241;BME280;11789;53.482;9.862;2023-02-10T03:04:41;103264.19;;;1.92;100.00
23241;BME280;11789;53.482;9.862;2023-02-10T03:07:07;103265.84;;;1.92;100.00
23241;BME280;11789;53.482;9.862;2023-02-10T03:09:33;103270.94;;;1.92;100.00
23241;BME280;11789;53.482;9.862;2023-02-10T03:12:00;103264.88;;;1.90;100.00
23241;BME280;11789;53.482;9.862;2023-02-10T03:14:25;103275.84;;;1.89;100.00
23241;BME280;11789;53.482;9.862;2023-02-10T03:16:51;103257.75;;;1.86;100.00
23241;BME280;11789;53.482;9.862;2023-02-10T03:19:16;103259.41;;;1.85;100.00
23241;BME280;11789;53.482;9.862;2023-02-10T03:21:42;103262.06;;;1.87;100.00
23241;BME280;11789;53.482;9.862;2023-02-10T03:24:07;103258.62;;;1.86;100.00
23241;BME280;11789;53.482;9.862;2023-02-10T03:26:35;103260.19;;;1.84;100.00
23241;BME280;11789;53.482;9.862;2023-02-10T03:29:00;103268.62;;;1.83;100.00
23241;BME280;11789;53.482;9.862;2023-02-10T03:31:26;103266.84;;;1.82;100.00
23241;BME280;11789;53.482;9.862;2023-02-10T03:33:51;103261.63;;;1.80;100.00
23241;BME280;11789;53.482;9.862;2023-02-10T03:36:17;103259.19;;;1.82;100.00
23241;BME280;11789;53.482;9.862;2023-02-10T03:38:42;103259.19;;;1.82;100.00
23241;BME280;11789;53.482;9.862;2023-02-10T03:41:07;103247.13;;;1.79;100.00
23241;BME280;11789;53.482;9.862;2023-02-10T03:43:33;103248.00;;;1.80;100.00
23241;BME280;11789;53.482;9.862;2023-02-10T03:46:03;103251.53;;;1.82;100.00
23241;BME280;11789;53.482;9.862;2023-02-10T03:48:29;103251.97;;;1.76;100.00
23241;BME280;11789;53.482;9.862;2023-02-10T03:51:02;103257.75;;;1.74;100.00
23241;BME280;11789;53.482;9.862;2023-02-10T03:53:28;103261.97;;;1.73;100.00
23241;BME280;11789;53.482;9.862;2023-02-10T03:55:54;103263.28;;;1.68;100.00
23241;BME280;11789;53.482;9.862;2023-02-10T03:58:20;103262.16;;;1.65;100.00
23241;BME280;11789;53.482;9.862;2023-02-10T04:00:45;103263.59;;;1.61;100.00
23241;BME280;11789;53.482;9.862;2023-02-10T04:03:11;103266.16;;;1.61;100.00
23241;BME280;11789;53.482;9.862;2023-02-10T04:05:36;103263.50;;;1.60;100.00
23241;BME280;11789;53.482;9.862;2023-02-10T04:08:02;103262.72;;;1.61;100.00
23241;BME280;11789;53.482;9.862;2023-02-10T04:10:27;103268.59;;;1.60;100.00
23241;BME280;11789;53.482;9.862;2023-02-10T04:12:53;103274.56;;;1.60;100.00
23241;BME280;11789;53.482;9.862;2023-02-10T04:15:19;103275.47;;;1.61;100.00
23241;BME280;11789;53.482;9.862;2023-02-10T04:17:51;103283.09;;;1.61;100.00
23241;BME280;11789;53.482;9.862;2023-02-10T04:20:16;103289.88;;;1.60;100.00
23241;BME280;11789;53.482;9.862;2023-02-10T04:22:42;103291.44;;;1.58;100.00
23241;BME280;11789;53.482;9.862;2023-02-10T04:25:07;103288.09;;;1.59;100.00
23241;BME280;11789;53.482;9.862;2023-02-10T04:27:34;103287.06;;;1.57;100.00
23241;BME280;11789;53.482;9.862;2023-02-10T04:29:59;103288.09;;;1.59;100.00
23241;BME280;11789;53.482;9.862;2023-02-10T04:32:25;103301.97;;;1.63;100.00
23241;BME280;11789;53.482;9.862;2023-02-10T04:34:50;103300.31;;;1.63;100.00
23241;BME280;11789;53.482;9.862;2023-02-10T04:37:17;103296.88;;;1.63;100.00
23241;BME280;11789;53.482;9.862;2023-02-10T04:39:42;103294.31;;;1.63;100.00
23241;BME280;11789;53.482;9.862;2023-02-10T04:42:08;103296.09;;;1.64;100.00
23241;BME280;11789;53.482;9.862;2023-02-10T04:44:34;103296.19;;;1.65;100.00
23241;BME280;11789;53.482;9.862;2023-02-10T04:46:59;103291.78;;;1.63;100.00
23241;BME280;11789;53.482;9.862;2023-02-10T04:49:25;103288.31;;;1.62;100.00
23241;BME280;11789;53.482;9.862;2023-02-10T04:51:52;103294.88;;;1.59;100.00
23241;BME280;11789;53.482;9.862;2023-02-10T04:54:17;103292.75;;;1.53;100.00
23241;BME280;11789;53.482;9.862;2023-02-10T04:56:42;103306.25;;;1.52;100.00
23241;BME280;11789;53.482;9.862;2023-02-10T04:59:08;103299.28;;;1.49;100.00
23241;BME280;11789;53.482;9.862;2023-02-10T05:01:33;103300.16;;;1.50;100.00
23241;BME280;11789;53.482;9.862;2023-02-10T05:03:59;103304.25;;;1.48;100.00
23241;BME280;11789;53.482;9.862;2023-02-10T05:06:25;103310.25;;;1.48;100.00
23241;BME280;11789;53.482;9.862;2023-02-10T05:08:50;103316.12;;;1.47;100.00
23241;BME280;11789;53.482;9.862;2023-02-10T05:11:16;103318.69;;;1.47;100.00
23241;BME280;11789;53.482;9.862;2023-02-10T05:13:42;103326.19;;;1.46;100.00
23241;BME280;11789;53.482;9.862;2023-02-10T05:16:10;103318.44;;;1.44;100.00
23241;BME280;11789;53.482;9.862;2023-02-10T05:18:36;103319.56;;;1.48;100.00
23241;BME280;11789;53.482;9.862;2023-02-10T05:21:03;103317.75;;;1.47;100.00
23241;BME280;11789;53.482;9.862;2023-02-10T05:23:29;103323.62;;;1.46;100.00
23241;BME280;11789;53.482;9.862;2023-02-10T05:25:54;103328.88;;;1.47;100.00
23241;BME280;11789;53.482;9.862;2023-02-10T05:28:20;103330.75;;;1.50;100.00
23241;BME280;11789;53.482;9.862;2023-02-10T05:30:46;103328.19;;;1.50;100.00
23241;BME280;11789;53.482;9.862;2023-02-10T05:33:12;103335.94;;;1.51;100.00
23241;BME280;11789;53.482;9.862;2023-02-10T05:35:38;103330.84;;;1.51;100.00
23241;BME280;11789;53.482;9.862;2023-02-10T05:38:03;103339.53;;;1.53;100.00
23241;BME280;11789;53.482;9.862;2023-02-10T05:40:29;103344.72;;;1.55;100.00
23241;BME280;11789;53.482;9.862;2023-02-10T05:42:54;103348.94;;;1.54;100.00
23241;BME280;11789;53.482;9.862;2023-02-10T05:45:20;103347.53;;;1.58;100.00
23241;BME280;11789;53.482;9.862;2023-02-10T05:47:46;103339.88;;;1.58;100.00
23241;BME280;11789;53.482;9.862;2023-02-10T05:50:12;103347.53;;;1.58;100.00
23241;BME280;11789;53.482;9.862;2023-02-10T05:52:37;103338.84;;;1.56;100.00
23241;BME280;11789;53.482;9.862;2023-02-10T05:55:03;103345.72;;;1.57;100.00
23241;BME280;11789;53.482;9.862;2023-02-10T05:57:28;103348.16;;;1.55;100.00
23241;BME280;11789;53.482;9.862;2023-02-10T05:59:54;103355.03;;;1.56;100.00
23241;BME280;11789;53.482;9.862;2023-02-10T06:02:19;103356.94;;;1.59;100.00
23241;BME280;11789;53.482;9.862;2023-02-10T06:04:45;103345.97;;;1.60;100.00
23241;BME280;11789;53.482;9.862;2023-02-10T06:07:10;103352.84;;;1.61;100.00
23241;BME280;11789;53.482;9.862;2023-02-10T06:09:36;103348.63;;;1.62;100.00
23241;BME280;11789;53.482;9.862;2023-02-10T06:12:01;103346.06;;;1.62;100.00
23241;BME280;11789;53.482;9.862;2023-02-10T06:14:28;103348.63;;;1.62;100.00
23241;BME280;11789;53.482;9.862;2023-02-10T06:16:53;103355.53;;;1.63;100.00
23241;BME280;11789;53.482;9.862;2023-02-10T06:19:19;103361.50;;;1.63;100.00
23241;BME280;11789;53.482;9.862;2023-02-10T06:21:44;103364.06;;;1.63;100.00
23241;BME280;11789;53.482;9.862;2023-02-10T06:24:09;103357.16;;;1.62;100.00
23241;BME280;11789;53.482;9.862;2023-02-10T06:26:35;103370.69;;;1.61;100.00
23241;BME280;11789;53.482;9.862;2023-02-10T06:29:01;103378.31;;;1.61;100.00
23241;BME280;11789;53.482;9.862;2023-02-10T06:31:26;103373.22;;;1.61;100.00
23241;BME280;11789;53.482;9.862;2023-02-10T06:33:52;103382.53;;;1.61;100.00
23241;BME280;11789;53.482;9.862;2023-02-10T06:36:17;103383.44;;;1.61;100.00
23241;BME280;11789;53.482;9.862;2023-02-10T06:38:43;103388.66;;;1.63;100.00
23241;BME280;11789;53.482;9.862;2023-02-10T06:41:08;103391.97;;;1.62;100.00
23241;BME280;11789;53.482;9.862;2023-02-10T06:43:34;103394.50;;;1.62;100.00
23241;BME280;11789;53.482;9.862;2023-02-10T06:45:59;103393.63;;;1.61;100.00
23241;BME280;11789;53.482;9.862;2023-02-10T06:48:25;103392.09;;;1.63;100.00
23241;BME280;11789;53.482;9.862;2023-02-10T06:50:51;103391.31;;;1.64;100.00
23241;BME280;11789;53.482;9.862;2023-02-10T06:53:18;103391.31;;;1.64;100.00
23241;BME280;11789;53.482;9.862;2023-02-10T06:55:43;103392.09;;;1.63;100.00
23241;BME280;11789;53.482;9.862;2023-02-10T06:58:09;103401.41;;;1.63;100.00
23241;BME280;11789;53.482;9.862;2023-02-10T07:00:35;103418.47;;;1.64;100.00
23241;BME280;11789;53.482;9.862;2023-02-10T07:03:00;103409.16;;;1.64;100.00
23241;BME280;11789;53.482;9.862;2023-02-10T07:05:25;103412.59;;;1.65;100.00
23241;BME280;11789;53.482;9.862;2023-02-10T07:07:51;103416.03;;;1.65;100.00
23241;BME280;11789;53.482;9.862;2023-02-10T07:10:19;103413.50;;;1.65;100.00
23241;BME280;11789;53.482;9.862;2023-02-10T07:12:45;103417.81;;;1.66;100.00
23241;BME280;11789;53.482;9.862;2023-02-10T07:15:12;103422.13;;;1.67;100.00
23241;BME280;11789;53.482;9.862;2023-02-10T07:17:38;103417.03;;;1.67;100.00
23241;BME280;11789;53.482;9.862;2023-02-10T07:20:04;103419.59;;;1.67;100.00
23241;BME280;11789;53.482;9.862;2023-02-10T07:22:29;103416.03;;;1.65;100.00
23241;BME280;11789;53.482;9.862;2023-02-10T07:24:55;103419.59;;;1.67;100.00
23241;BME280;11789;53.482;9.862;2023-02-10T07:27:22;103425.47;;;1.66;100.00
23241;BME280;11789;53.482;9.862;2023-02-10T07:29:47;103424.69;;;1.67;100.00
23241;BME280;11789;53.482;9.862;2023-02-10T07:32:14;103423.25;;;1.71;100.00
23241;BME280;11789;53.482;9.862;2023-02-10T07:34:40;103427.38;;;1.69;100.00
23241;BME280;11789;53.482;9.862;2023-02-10T07:37:06;103435.25;;;1.72;100.00
23241;BME280;11789;53.482;9.862;2023-02-10T07:39:31;103437.78;;;1.72;100.00
23241;BME280;11789;53.482;9.862;2023-02-10T07:42:00;103432.81;;;1.73;100.00
23241;BME280;11789;53.482;9.862;2023-02-10T07:44:25;103426.94;;;1.74;100.00
23241;BME280;11789;53.482;9.862;2023-02-10T07:46:51;103438.81;;;1.74;100.00
23241;BME280;11789;53.482;9.862;2023-02-10T07:49:17;103432.06;;;1.74;100.00
23241;BME280;11789;53.482;9.862;2023-02-10T07:51:43;103433.03;;;1.76;100.00
23241;BME280;11789;53.482;9.862;2023-02-10T07:54:09;103436.47;;;1.77;100.00
23241;BME280;11789;53.482;9.862;2023-02-10T07:56:35;103439.16;;;1.78;100.00
23241;BME280;11789;53.482;9.862;2023-02-10T07:59:00;103431.62;;;1.80;100.00
23241;BME280;11789;53.482;9.862;2023-02-10T08:01:26;103433.41;;;1.81;100.00
23241;BME280;11789;53.482;9.862;2023-02-10T08:03:51;103432.75;;;1.84;100.00
23241;BME280;11789;53.482;9.862;2023-02-10T08:06:21;103428.66;;;1.86;100.00
23241;BME280;11789;53.482;9.862;2023-02-10T08:08:47;103422.91;;;1.88;100.00
23241;BME280;11789;53.482;9.862;2023-02-10T08:11:13;103434.22;;;1.92;100.00
23241;BME280;11789;53.482;9.862;2023-02-10T08:13:39;103430.00;;;1.92;100.00
23241;BME280;11789;53.482;9.862;2023-02-10T08:16:05;103423.47;;;1.96;100.00
23241;BME280;11789;53.482;9.862;2023-02-10T08:18:33;103424.50;;;1.98;100.00
23241;BME280;11789;53.482;9.862;2023-02-10T08:20:59;103422.16;;;2.01;100.00
23241;BME280;11789;53.482;9.862;2023-02-10T08:23:25;103424.16;;;2.05;100.00
23241;BME280;11789;53.482;9.862;2023-02-10T08:25:50;103411.75;;;2.10;100.00
23241;BME280;11789;53.482;9.862;2023-02-10T08:28:16;103416.63;;;2.06;100.00
23241;BME280;11789;53.482;9.862;2023-02-10T08:30:42;103422.84;;;2.10;100.00
23241;BME280;11789;53.482;9.862;2023-02-10T08:33:08;103421.28;;;2.12;100.00
23241;BME280;11789;53.482;9.862;2023-02-10T08:35:35;103421.62;;;2.17;100.00
23241;BME280;11789;53.482;9.862;2023-02-10T08:38:02;103427.97;;;2.22;100.00
23241;BME280;11789;53.482;9.862;2023-02-10T08:40:27;103425.31;;;2.20;100.00
23241;BME280;11789;53.482;9.862;2023-02-10T08:42:52;103428.75;;;2.21;100.00
23241;BME280;11789;53.482;9.862;2023-02-10T08:45:18;103426.00;;;2.29;100.00
23241;BME280;11789;53.482;9.862;2023-02-10T08:47:43;103435.66;;;2.33;100.00
23241;BME280;11789;53.482;9.862;2023-02-10T08:50:09;103428.75;;;2.32;100.00
23241;BME280;11789;53.482;9.862;2023-02-10T08:52:34;103439.84;;;2.33;100.00
23241;BME280;11789;53.482;9.862;2023-02-10T08:55:00;103439.63;;;2.30;100.00
23241;BME280;11789;53.482;9.862;2023-02-10T08:57:27;103450.63;;;2.29;100.00
23241;BME280;11789;53.482;9.862;2023-02-10T08:59:52;103447.94;;;2.27;100.00
23241;BME280;11789;53.482;9.862;2023-02-10T09:02:18;103448.97;;;2.29;100.00
23241;BME280;11789;53.482;9.862;2023-02-10T09:04:43;103456.63;;;2.29;100.00
23241;BME280;11789;53.482;9.862;2023-02-10T09:07:10;103449.16;;;2.32;100.00
23241;BME280;11789;53.482;9.862;2023-02-10T09:09:41;103444.94;;;2.33;100.00
23241;BME280;11789;53.482;9.862;2023-02-10T09:12:08;103449.94;;;2.31;100.00
23241;BME280;11789;53.482;9.862;2023-02-10T09:14:37;103443.87;;;2.29;100.00
23241;BME280;11789;53.482;9.862;2023-02-10T09:17:03;103444.66;;;2.28;100.00
23241;BME280;11789;53.482;9.862;2023-02-10T09:19:29;103455.59;;;2.27;100.00
23241;BME280;11789;53.482;9.862;2023-02-10T09:21:55;103463.25;;;2.27;100.00
23241;BME280;11789;53.482;9.862;2023-02-10T09:24:22;103465.28;;;2.31;100.00
23241;BME280;11789;53.482;9.862;2023-02-10T09:26:48;103469.06;;;2.37;100.00
23241;BME280;11789;53.482;9.862;2023-02-10T09:29:14;103468.16;;;2.36;100.00
23241;BME280;11789;53.482;9.862;2023-02-10T09:31:39;103468.50;;;2.41;100.00
23241;BME280;11789;53.482;9.862;2023-02-10T09:34:04;103470.28;;;2.42;100.00
23241;BME280;11789;53.482;9.862;2023-02-10T09:36:30;103467.44;;;2.49;100.00
23241;BME280;11789;53.482;9.862;2023-02-10T09:38:56;103476.84;;;2.50;100.00
23241;BME280;11789;53.482;9.862;2023-02-10T09:41:35;103474.31;;;2.50;100.00
23241;BME280;11789;53.482;9.862;2023-02-10T09:44:22;103462.53;;;2.52;100.00
23241;BME280;11789;53.482;9.862;2023-02-10T09:54:51;103452.75;;;2.58;100.00
23241;BME280;11789;53.482;9.862;2023-02-10T09:57:37;103452.09;;;2.60;100.00
23241;BME280;11789;53.482;9.862;2023-02-10T10:00:13;103453.00;;;2.61;100.00
23241;BME280;11789;53.482;9.862;2023-02-10T10:02:51;103455.00;;;2.65;100.00
23241;BME280;11789;53.482;9.862;2023-02-10T10:05:45;103456.87;;;2.68;100.00
23241;BME280;11789;53.482;9.862;2023-02-10T10:08:25;103454.47;;;2.69;100.00
23241;BME280;11789;53.482;9.862;2023-02-10T10:10:55;103457.13;;;2.71;100.00
23241;BME280;11789;53.482;9.862;2023-02-10T10:13:25;103460.87;;;2.76;100.00
23241;BME280;11789;53.482;9.862;2023-02-10T10:21:22;103463.34;;;2.86;100.00
23241;BME280;11789;53.482;9.862;2023-02-10T10:24:10;103461.53;;;2.97;100.00
23241;BME280;11789;53.482;9.862;2023-02-10T10:27:11;103469.00;;;3.05;100.00
23241;BME280;11789;53.482;9.862;2023-02-10T10:29:54;103471.63;;;3.19;100.00
23241;BME280;11789;53.482;9.862;2023-02-10T10:32:43;103473.28;;;3.18;100.00
23241;BME280;11789;53.482;9.862;2023-02-10T10:35:16;103471.63;;;3.19;100.00
23241;BME280;11789;53.482;9.862;2023-02-10T10:37:42;103472.38;;;3.29;100.00
23241;BME280;11789;53.482;9.862;2023-02-10T10:40:17;103466.84;;;3.35;100.00
23241;BME280;11789;53.482;9.862;2023-02-10T10:42:54;103467.91;;;3.38;100.00
23241;BME280;11789;53.482;9.862;2023-02-10T10:45:36;103474.16;;;3.42;100.00
23241;BME280;11789;53.482;9.862;2023-02-10T10:48:14;103469.91;;;3.43;100.00
23241;BME280;11789;53.482;9.862;2023-02-10T10:50:40;103472.91;;;3.49;100.00
23241;BME280;11789;53.482;9.862;2023-02-10T10:53:15;103469.22;;;3.57;100.00
23241;BME280;11789;53.482;9.862;2023-02-10T10:55:48;103463.41;;;3.71;100.00
23241;BME280;11789;53.482;9.862;2023-02-10T10:58:27;103452.44;;;3.85;100.00
23241;BME280;11789;53.482;9.862;2023-02-10T11:00:56;103439.31;;;4.06;100.00
23241;BME280;11789;53.482;9.862;2023-02-10T11:03:22;103441.88;;;4.19;100.00
23241;BME280;11789;53.482;9.862;2023-02-10T11:08:31;103432.09;;;4.38;100.00
23241;BME280;11789;53.482;9.862;2023-02-10T11:11:00;103432.78;;;4.49;100.00
23241;BME280;11789;53.482;9.862;2023-02-10T11:13:29;103422.16;;;4.56;100.00
23241;BME280;11789;53.482;9.862;2023-02-10T11:16:09;103417.31;;;4.61;100.00
23241;BME280;11789;53.482;9.862;2023-02-10T11:18:35;103413.19;;;4.63;100.00
23241;BME280;11789;53.482;9.862;2023-02-10T11:21:07;103419.66;;;4.71;100.00
23241;BME280;11789;53.482;9.862;2023-02-10T11:23:51;103417.53;;;4.77;100.00
23241;BME280;11789;53.482;9.862;2023-02-10T11:26:23;103418.72;;;4.82;100.00
23241;BME280;11789;53.482;9.862;2023-02-10T11:28:49;103415.53;;;4.86;100.00
23241;BME280;11789;53.482;9.862;2023-02-10T11:36:30;103412.75;;;4.97;100.00
23241;BME280;11789;53.482;9.862;2023-02-10T11:39:04;103407.41;;;5.07;100.00
23241;BME280;11789;53.482;9.862;2023-02-10T11:41:31;103407.81;;;5.13;100.00
23241;BME280;11789;53.482;9.862;2023-02-10T11:43:57;103397.62;;;5.28;100.00
23241;BME280;11789;53.482;9.862;2023-02-10T11:46:26;103394.31;;;5.43;100.00
23241;BME280;11789;53.482;9.862;2023-02-10T11:49:03;103388.94;;;5.54;100.00
23241;BME280;11789;53.482;9.862;2023-02-10T11:51:30;103388.25;;;5.71;100.00
23241;BME280;11789;53.482;9.862;2023-02-10T11:53:57;103380.03;;;5.77;99.03
23241;BME280;11789;53.482;9.862;2023-02-10T11:56:25;103383.75;;;5.82;98.46
23241;BME280;11789;53.482;9.862;2023-02-10T12:05:25;103366.84;;;6.13;97.46
23241;BME280;11789;53.482;9.862;2023-02-10T12:10:56;103364.69;;;6.06;94.37
23241;BME280;11789;53.482;9.862;2023-02-10T12:16:41;103346.72;;;6.06;94.25
23241;BME280;11789;53.482;9.862;2023-02-10T12:22:09;103342.66;;;5.95;93.70
23241;BME280;11789;53.482;9.862;2023-02-10T12:27:55;103340.34;;;6.00;94.46
23241;BME280;11789;53.482;9.862;2023-02-10T12:31:04;103341.84;;;5.96;93.02
23241;BME280;11789;53.482;9.862;2023-02-10T12:42:18;103319.69;;;5.83;92.68
23241;BME280;11789;53.482;9.862;2023-02-10T12:45:17;103315.34;;;5.82;93.15
23241;BME280;11789;53.482;9.862;2023-02-10T12:50:40;103292.22;;;5.82;92.85
23241;BME280;11789;53.482;9.862;2023-02-10T12:53:23;103300.56;;;5.78;92.55
23241;BME280;11789;53.482;9.862;2023-02-10T12:56:01;103299.66;;;5.78;93.27
23241;BME280;11789;53.482;9.862;2023-02-10T12:58:40;103299.59;;;5.76;92.53
23241;BME280;11789;53.482;9.862;2023-02-10T13:03:38;103290.38;;;5.65;92.44
23241;BME280;11789;53.482;9.862;2023-02-10T13:06:17;103295.25;;;5.60;93.00
23241;BME280;11789;53.482;9.862;2023-02-10T13:08:55;103283.22;;;5.59;92.69
23241;BME280;11789;53.482;9.862;2023-02-10T13:11:55;103306.91;;;5.55;92.81
23241;BME280;11789;53.482;9.862;2023-02-10T13:14:27;103305.31;;;5.57;92.71
23241;BME280;11789;53.482;9.862;2023-02-10T13:16:56;103306.66;;;5.65;92.57
23241;BME280;11789;53.482;9.862;2023-02-10T13:22:09;103310.31;;;5.69;91.58
23241;BME280;11789;53.482;9.862;2023-02-10T13:24:50;103299.94;;;5.67;91.04
23241;BME280;11789;53.482;9.862;2023-02-10T13:27:57;103289.78;;;5.69;91.78
23241;BME280;11789;53.482;9.862;2023-02-10T13:35:55;103273.22;;;5.64;90.79
23241;BME280;11789;53.482;9.862;2023-02-10T13:38:22;103276.59;;;5.63;90.40
23241;BME280;11789;53.482;9.862;2023-02-10T13:40:56;103275.78;;;5.64;90.25
23241;BME280;11789;53.482;9.862;2023-02-10T13:43:43;103266.56;;;5.67;89.91
23241;BME280;11789;53.482;9.862;2023-02-10T13:46:36;103260.53;;;5.67;89.81
23241;BME280;11789;53.482;9.862;2023-02-10T13:49:02;103262.22;;;5.66;90.67
23241;BME280;11789;53.482;9.862;2023-02-10T13:51:38;103256.94;;;5.63;90.70
23241;BME280;11789;53.482;9.862;2023-02-10T13:54:04;103251.69;;;5.62;90.99
23241;BME280;11789;53.482;9.862;2023-02-10T13:56:38;103247.37;;;5.61;90.97
23241;BME280;11789;53.482;9.862;2023-02-10T14:01:45;103248.09;;;5.58;90.95
23241;BME280;11789;53.482;9.862;2023-02-10T14:06:49;103241.97;;;5.56;91.06
23241;BME280;11789;53.482;9.862;2023-02-10T14:09:34;103238.53;;;5.56;90.98
23241;BME280;11789;53.482;9.862;2023-02-10T14:12:05;103233.41;;;5.56;90.74
23241;BME280;11789;53.482;9.862;2023-02-10T14:14:47;103239.31;;;5.55;90.55
23241;BME280;11789;53.482;9.862;2023-02-10T14:19:41;103251.88;;;5.50;90.42
23241;BME280;11789;53.482;9.862;2023-02-10T14:22:29;103255.34;;;5.51;90.74
23241;BME280;11789;53.482;9.862;2023-02-10T14:25:00;103252.59;;;5.47;90.61
23241;BME280;11789;53.482;9.862;2023-02-10T14:27:28;103260.19;;;5.46;90.55